createdAt,value
2023-02-13T00:00:58.978Z,102282.66
2023-02-13T00:03:26.409Z,102277.31
2023-02-13T00:05:56.822Z,102265.97
2023-02-13T00:08:23.979Z,102266.22
2023-02-13T00:10:51.151Z,102275.31
2023-02-13T00:13:20.864Z,102278.91
2023-02-13T00:16:04.261Z,102273.13
2023-02-13T00:18:35.436Z,102278.91
2023-02-13T00:21:08.592Z,102279.63
2023-02-13T00:23:39.443Z,102286.69
2023-02-13T00:26:11.463Z,102282.22
2023-02-13T00:28:38.972Z,102284.38
2023-02-13T00:31:12.430Z,102281.56
2023-02-13T00:33:40.097Z,102282.16
2023-02-13T00:36:13.777Z,102286.81
2023-02-13T00:38:42.133Z,102284.84
2023-02-13T00:41:09.644Z,102288.72
2023-02-13T00:43:38.333Z,102280.94
2023-02-13T00:46:08.246Z,102285.31
2023-02-13T00:48:36.396Z,102292.78
2023-02-13T00:51:04.659Z,102294.22
2023-02-13T00:53:35.237Z,102302.63
2023-02-13T00:56:04.288Z,102292.88
2023-02-13T00:58:32.422Z,102295.63
2023-02-13T01:01:00.483Z,102285.72
2023-02-13T01:03:28.366Z,102294.19
2023-02-13T01:05:56.962Z,102296.44
2023-02-13T01:08:24.356Z,102286.72
2023-02-13T01:10:51.568Z,102295.34
2023-02-13T01:13:18.782Z,102291.75
2023-02-13T01:15:47.677Z,102292.13
2023-02-13T01:18:16.613Z,102293.88
2023-02-13T01:20:45.073Z,102295.47
2023-02-13T01:23:12.812Z,102293.28
2023-02-13T01:25:43.764Z,102292.81
2023-02-13T01:28:11.776Z,102292.16
2023-02-13T01:30:39.059Z,102294.06
2023-02-13T01:33:06.167Z,102297.47
2023-02-13T01:35:38.823Z,102291.50
2023-02-13T01:38:08.961Z,102293.19
2023-02-13T01:40:43.950Z,102289.19
2023-02-13T01:43:12.176Z,102288.53
2023-02-13T01:45:39.832Z,102294.59
2023-02-13T01:48:23.463Z,102290.41
2023-02-13T01:51:00.940Z,102287.09
2023-02-13T01:53:37.731Z,102285.31
2023-02-13T01:56:21.867Z,102285.66
2023-02-13T01:58:53.111Z,102284.72
2023-02-13T02:01:21.889Z,102289.22
2023-02-13T02:03:56.345Z,102286.84
2023-02-13T02:06:27.526Z,102284.41
2023-02-13T02:08:59.412Z,102284.59
2023-02-13T02:11:49.952Z,102282.84
2023-02-13T02:14:21.168Z,102289.03
2023-02-13T02:16:48.734Z,102285.16
2023-02-13T02:19:47.517Z,102284.16
2023-02-13T02:22:29.371Z,102281.31
2023-02-13T02:25:15.407Z,102279.09
2023-02-13T02:28:20.093Z,102290.00
2023-02-13T02:31:09.041Z,102281.97
2023-02-13T02:33:57.783Z,102287.88
2023-02-13T02:36:53.754Z,102301.31
2023-02-13T02:39:46.434Z,102299.69
2023-02-13T02:42:34.123Z,102296.84
2023-02-13T02:45:25.287Z,102302.31
2023-02-13T02:48:07.756Z,102303.31
2023-02-13T02:50:44.254Z,102306.88
2023-02-13T02:53:24.017Z,102305.50
2023-02-13T02:55:54.891Z,102306.91
2023-02-13T02:58:31.684Z,102314.38
2023-02-13T03:01:01.270Z,102310.91
2023-02-13T03:03:30.304Z,102316.84
2023-02-13T03:05:59.573Z,102318.50
2023-02-13T03:08:29.145Z,102321.97
2023-02-13T03:10:56.763Z,102324.84
2023-02-13T03:13:35.220Z,102318.63
2023-02-13T03:16:03.707Z,102328.41
2023-02-13T03:18:35.307Z,102323.72
2023-02-13T03:21:13.742Z,102314.06
2023-02-13T03:24:05.312Z,102321.50
2023-02-13T03:26:51.213Z,102321.47
2023-02-13T03:29:19.041Z,102320.41
2023-02-13T03:31:57.383Z,102319.44
2023-02-13T03:34:27.611Z,102312.00
2023-02-13T03:37:03.683Z,102315.16
2023-02-13T03:39:55.758Z,102317.38
2023-02-13T03:42:25.590Z,102310.50
2023-02-13T03:45:14.381Z,102313.13
2023-02-13T03:47:43.950Z,102313.53
2023-02-13T03:50:13.972Z,102313.81
2023-02-13T03:52:47.313Z,102314.50
2023-02-13T03:55:21.241Z,102309.66
2023-02-13T03:57:52.426Z,102304.97
2023-02-13T04:00:21.280Z,102314.09
2023-02-13T04:03:06.268Z,102307.31
2023-02-13T04:05:39.813Z,102309.53
2023-02-13T04:08:07.058Z,102312.69
2023-02-13T04:10:37.696Z,102307.19
2023-02-13T04:13:26.625Z,102298.91
2023-02-13T04:16:03.966Z,102306.38
2023-02-13T04:18:33.968Z,102299.06
2023-02-13T04:21:04.267Z,102307.19
2023-02-13T04:23:31.941Z,102302.78
2023-02-13T04:26:05.342Z,102309.72
2023-02-13T04:28:33.088Z,102321.00
2023-02-13T04:31:00.749Z,102322.41
2023-02-13T04:33:28.661Z,102329.66
2023-02-13T04:36:09.105Z,102323.47
2023-02-13T04:38:36.321Z,102324.88
2023-02-13T04:41:03.888Z,102317.25
2023-02-13T04:43:33.891Z,102317.91
2023-02-13T04:46:03.274Z,102322.50
2023-02-13T04:48:31.228Z,102317.81
2023-02-13T04:50:59.443Z,102316.03
2023-02-13T04:53:27.669Z,102325.97
2023-02-13T04:55:55.651Z,102329.41
2023-02-13T04:58:23.442Z,102323.44
2023-02-13T05:00:52.201Z,102320.78
2023-02-13T05:03:19.995Z,102323.50
2023-02-13T05:05:49.021Z,102326.59
2023-02-13T05:08:17.264Z,102326.59
2023-02-13T05:10:44.528Z,102329.22
2023-02-13T05:13:11.778Z,102328.66
2023-02-13T05:15:39.107Z,102330.84
2023-02-13T05:18:06.034Z,102335.53
2023-02-13T05:20:33.309Z,102342.59
2023-02-13T05:23:00.379Z,102337.69
2023-02-13T05:25:27.641Z,102348.28
2023-02-13T05:27:55.015Z,102347.72
2023-02-13T05:30:22.224Z,102346.63
2023-02-13T05:32:49.567Z,102346.16
2023-02-13T05:35:17.372Z,102341.22
2023-02-13T05:37:45.295Z,102340.84
2023-02-13T05:40:13.830Z,102348.53
2023-02-13T05:42:41.931Z,102342.31
2023-02-13T05:45:10.340Z,102348.75
2023-02-13T05:47:37.937Z,102346.22
2023-02-13T05:50:06.430Z,102351.38
2023-02-13T05:52:33.747Z,102350.94
2023-02-13T05:55:01.030Z,102351.16
2023-02-13T05:57:28.271Z,102349.25
2023-02-13T05:59:55.545Z,102349.16
2023-02-13T06:02:22.852Z,102341.81
2023-02-13T06:05:03.465Z,102352.00
2023-02-13T06:07:32.104Z,102356.69
2023-02-13T06:10:06.535Z,102355.47
2023-02-13T06:12:33.853Z,102361.66
2023-02-13T06:15:01.077Z,102357.06
2023-02-13T06:17:28.308Z,102358.09
2023-02-13T06:19:55.556Z,102360.47
2023-02-13T06:22:22.807Z,102361.41
2023-02-13T06:24:50.357Z,102365.97
2023-02-13T06:27:18.000Z,102362.25
2023-02-13T06:29:45.280Z,102364.34
2023-02-13T06:32:12.573Z,102362.59
2023-02-13T06:34:39.841Z,102368.03
2023-02-13T06:37:07.408Z,102364.91
2023-02-13T06:39:34.770Z,102360.94
2023-02-13T06:42:02.264Z,102357.41
2023-02-13T06:44:29.549Z,102365.50
2023-02-13T06:46:56.979Z,102366.94
2023-02-13T06:49:24.302Z,102363.41
2023-02-13T06:51:51.641Z,102367.44
2023-02-13T06:54:19.029Z,102370.41
2023-02-13T06:56:46.339Z,102367.44
2023-02-13T06:59:14.060Z,102373.38
2023-02-13T07:01:41.371Z,102368.41
2023-02-13T07:04:08.723Z,102363.94
2023-02-13T07:06:36.049Z,102370.41
2023-02-13T07:09:04.491Z,102373.34
2023-02-13T07:11:31.826Z,102373.38
2023-02-13T07:13:59.145Z,102366.19
2023-02-13T07:16:26.675Z,102373.81
2023-02-13T07:18:53.931Z,102378.91
2023-02-13T07:21:21.111Z,102378.06
2023-02-13T07:23:48.391Z,102365.44
2023-02-13T07:26:15.727Z,102365.72
2023-02-13T07:28:43.126Z,102375.19
2023-02-13T07:31:10.874Z,102371.81
2023-02-13T07:33:38.170Z,102381.78
2023-02-13T07:36:05.791Z,102374.75
2023-02-13T07:38:33.513Z,102371.19
2023-02-13T07:41:02.632Z,102381.13
2023-02-13T07:43:30.385Z,102376.13
2023-02-13T07:46:00.289Z,102386.16
2023-02-13T07:48:28.630Z,102392.97
2023-02-13T07:51:01.171Z,102393.69
2023-02-13T07:53:28.904Z,102392.94
2023-02-13T07:55:56.384Z,102395.19
2023-02-13T07:58:23.908Z,102390.75
2023-02-13T08:00:51.538Z,102391.41
2023-02-13T08:03:18.806Z,102392.91
2023-02-13T08:05:48.532Z,102397.13
2023-02-13T08:08:16.690Z,102399.66
2023-02-13T08:10:44.102Z,102394.50
2023-02-13T08:13:14.254Z,102383.56
2023-02-13T08:15:41.719Z,102383.88
2023-02-13T08:18:09.069Z,102390.00
2023-02-13T08:20:36.547Z,102377.78
2023-02-13T08:23:06.127Z,102377.47
2023-02-13T08:25:34.253Z,102375.94
2023-02-13T08:28:02.640Z,102376.63
2023-02-13T08:30:30.087Z,102371.91
2023-02-13T08:32:57.615Z,102365.09
2023-02-13T08:35:25.219Z,102368.69
2023-02-13T08:37:53.561Z,102365.56
2023-02-13T08:40:23.434Z,102365.56
2023-02-13T08:42:51.846Z,102371.94
2023-02-13T08:45:19.201Z,102372.13
2023-02-13T08:47:46.422Z,102364.19
2023-02-13T08:50:13.847Z,102362.78
2023-02-13T08:52:41.098Z,102356.78
2023-02-13T08:55:08.313Z,102371.03
2023-02-13T08:57:35.890Z,102359.63
2023-02-13T09:00:03.834Z,102359.13
2023-02-13T09:02:33.703Z,102362.56
2023-02-13T09:05:01.115Z,102364.69
2023-02-13T09:07:31.496Z,102362.09
2023-02-13T09:09:58.801Z,102359.38
2023-02-13T09:12:26.232Z,102347.81
2023-02-13T09:14:53.514Z,102353.69
2023-02-13T09:17:20.778Z,102348.13
2023-02-13T09:19:48.038Z,102341.28
2023-02-13T09:22:15.995Z,102337.94
2023-02-13T09:24:46.372Z,102333.44
2023-02-13T09:27:13.969Z,102326.91
2023-02-13T09:29:41.377Z,102321.13
2023-02-13T09:32:08.776Z,102319.25
2023-02-13T09:34:36.060Z,102318.19
2023-02-13T09:37:04.601Z,102316.09
2023-02-13T09:39:31.965Z,102308.50
2023-02-13T09:42:01.462Z,102305.91
2023-02-13T09:44:37.124Z,102308.41
2023-02-13T09:47:25.964Z,102308.38
2023-02-13T09:49:57.343Z,102305.16
2023-02-13T09:52:28.364Z,102301.63
2023-02-13T09:54:55.655Z,102298.53
2023-02-13T09:57:49.298Z,102291.09
2023-02-13T10:00:26.449Z,102295.69
2023-02-13T10:02:53.697Z,102289.91
2023-02-13T10:05:47.036Z,102286.25
2023-02-13T10:08:33.049Z,102281.34
2023-02-13T10:11:37.384Z,102275.72
2023-02-13T10:14:44.826Z,102271.53
2023-02-13T10:17:21.465Z,102277.34
2023-02-13T10:20:03.112Z,102269.50
2023-02-13T10:22:43.201Z,102264.31
2023-02-13T10:25:21.205Z,102267.72
2023-02-13T10:28:03.978Z,102256.59
2023-02-13T10:30:46.715Z,102250.63
2023-02-13T10:33:18.957Z,102241.78
2023-02-13T10:35:53.873Z,102232.94
2023-02-13T10:38:23.370Z,102241.63
2023-02-13T10:41:23.007Z,102239.28
2023-02-13T10:44:34.712Z,102246.44
2023-02-13T10:47:23.773Z,102244.28
2023-02-13T10:49:56.925Z,102241.03
2023-02-13T10:52:53.439Z,102237.50
2023-02-13T10:56:07.186Z,102245.84
2023-02-13T10:59:02.220Z,102244.09
2023-02-13T11:02:10.132Z,102234.56
2023-02-13T11:04:44.338Z,102228.69
2023-02-13T11:07:17.631Z,102225.56
2023-02-13T11:09:50.065Z,102220.94
2023-02-13T11:12:26.559Z,102212.28
2023-02-13T11:15:00.342Z,102211.72
2023-02-13T11:17:31.333Z,102213.84
2023-02-13T11:20:01.652Z,102205.06
2023-02-13T11:22:39.014Z,102206.22
2023-02-13T11:25:18.737Z,102203.06
2023-02-13T11:27:49.383Z,102199.63
2023-02-13T11:30:28.992Z,102201.94
2023-02-13T11:33:02.718Z,102183.69
2023-02-13T11:35:33.396Z,102175.91
2023-02-13T11:38:10.129Z,102181.19
2023-02-13T11:40:38.364Z,102167.81
2023-02-13T11:43:37.076Z,102162.47
2023-02-13T11:46:09.673Z,102170.34
2023-02-13T11:48:37.564Z,102162.72
2023-02-13T11:51:04.973Z,102155.00
2023-02-13T11:53:39.307Z,102146.00
2023-02-13T11:56:11.900Z,102148.44
2023-02-13T11:58:40.552Z,102141.66
2023-02-13T12:01:25.268Z,102141.25
2023-02-13T12:04:17.950Z,102128.50
2023-02-13T12:07:16.583Z,102129.31
2023-02-13T12:09:47.231Z,102132.13
2023-02-13T12:12:25.846Z,102121.94
2023-02-13T12:14:57.546Z,102119.50
2023-02-13T12:17:32.317Z,102120.06
2023-02-13T12:20:00.627Z,102111.09
2023-02-13T12:23:01.182Z,102107.59
2023-02-13T12:26:02.079Z,102111.38
2023-02-13T12:29:14.222Z,102105.22
2023-02-13T12:32:13.407Z,102098.28
2023-02-13T12:35:05.316Z,102096.81
2023-02-13T12:37:47.996Z,102090.91
2023-02-13T12:40:44.558Z,102083.09
2023-02-13T12:43:29.372Z,102078.75
2023-02-13T12:46:02.500Z,102087.16
2023-02-13T12:48:48.109Z,102084.28
2023-02-13T12:51:33.169Z,102081.22
2023-02-13T12:54:22.591Z,102076.06
2023-02-13T12:57:08.197Z,102072.00
2023-02-13T12:59:38.407Z,102074.75
2023-02-13T13:02:27.438Z,102068.16
2023-02-13T13:05:13.813Z,102065.31
2023-02-13T13:07:55.398Z,102067.78
2023-02-13T13:10:47.517Z,102057.13
2023-02-13T13:13:35.787Z,102057.72
2023-02-13T13:16:23.865Z,102047.50
2023-02-13T13:19:09.298Z,102048.13
2023-02-13T13:21:56.576Z,102055.06
2023-02-13T13:24:48.681Z,102053.66
2023-02-13T13:27:24.909Z,102037.88
2023-02-13T13:29:55.689Z,102032.16
2023-02-13T13:32:27.278Z,102036.66
2023-02-13T13:34:55.190Z,102031.94
2023-02-13T13:37:28.535Z,102026.19
2023-02-13T13:40:27.990Z,102021.09
2023-02-13T13:43:03.624Z,102014.16
2023-02-13T13:45:43.042Z,102006.56
2023-02-13T13:48:35.308Z,102006.38
2023-02-13T13:51:03.369Z,102009.25
2023-02-13T13:53:30.899Z,102000.63
2023-02-13T13:55:59.905Z,101998.78
2023-02-13T13:58:37.871Z,102000.81
2023-02-13T14:01:34.458Z,101987.75
2023-02-13T14:04:04.275Z,101986.31
2023-02-13T14:06:40.647Z,101976.94
2023-02-13T14:09:29.785Z,101988.16
2023-02-13T14:12:27.541Z,101986.50
2023-02-13T14:15:00.308Z,101987.75
2023-02-13T14:17:45.951Z,101975.47
2023-02-13T14:20:22.389Z,101973.63
2023-02-13T14:22:50.126Z,101968.53
2023-02-13T14:25:24.623Z,101963.00
2023-02-13T14:28:03.256Z,101964.84
2023-02-13T14:30:35.349Z,101962.34
2023-02-13T14:33:32.250Z,101953.38
2023-02-13T14:36:10.030Z,101955.41
2023-02-13T14:38:42.091Z,101954.59
2023-02-13T14:41:44.876Z,101948.50
2023-02-13T14:44:36.297Z,101949.31
2023-02-13T14:47:12.597Z,101950.53
2023-02-13T14:49:42.274Z,101944.38
2023-02-13T14:52:34.330Z,101944.75
2023-02-13T14:55:06.835Z,101949.44
2023-02-13T14:57:53.167Z,101943.56
2023-02-13T15:00:36.984Z,101937.84
2023-02-13T15:03:28.758Z,101938.88
2023-02-13T15:06:12.947Z,101941.53
2023-02-13T15:08:49.286Z,101937.81
2023-02-13T15:11:42.522Z,101935.78
2023-02-13T15:14:21.800Z,101940.91
2023-02-13T15:17:14.392Z,101938.44
2023-02-13T15:19:48.325Z,101933.56
2023-02-13T15:22:31.428Z,101936.41
2023-02-13T15:24:59.382Z,101930.44
2023-02-13T15:27:32.579Z,101929.84
2023-02-13T15:30:26.301Z,101930.06
2023-02-13T15:33:02.920Z,101930.84
2023-02-13T15:35:39.298Z,101927.53
2023-02-13T15:38:30.065Z,101930.84
2023-02-13T15:41:04.899Z,101931.66
2023-02-13T15:43:42.472Z,101923.28
2023-02-13T15:46:30.222Z,101931.25
2023-02-13T15:49:09.463Z,101928.31
2023-02-13T15:51:37.001Z,101920.91
2023-02-13T15:54:20.919Z,101917.78
2023-02-13T15:56:50.941Z,101924.06
2023-02-13T15:59:20.161Z,101923.06
2023-02-13T16:01:52.024Z,101928.66
2023-02-13T16:04:24.636Z,101920.88
2023-02-13T16:06:55.608Z,101927.22
2023-02-13T16:09:32.564Z,101916.88
2023-02-13T16:12:04.854Z,101923.41
2023-02-13T16:14:35.983Z,101917.28
2023-02-13T16:17:13.712Z,101921.09
2023-02-13T16:19:56.699Z,101924.59
2023-02-13T16:22:40.676Z,101925.06
2023-02-13T16:25:14.014Z,101931.28
2023-02-13T16:27:48.699Z,101931.50
2023-02-13T16:30:24.557Z,101932.69
2023-02-13T16:33:14.345Z,101935.88
2023-02-13T16:35:57.001Z,101939.59
2023-02-13T16:38:30.604Z,101941.25
2023-02-13T16:41:01.768Z,101933.34
2023-02-13T16:43:35.548Z,101937.22
2023-02-13T16:46:24.482Z,101933.63
2023-02-13T16:48:58.070Z,101931.69
2023-02-13T16:51:39.252Z,101932.38
2023-02-13T16:54:15.477Z,101927.38
2023-02-13T16:56:50.247Z,101930.53
2023-02-13T16:59:17.498Z,101926.78
2023-02-13T17:01:48.816Z,101925.34
2023-02-13T17:04:26.754Z,101935.75
2023-02-13T17:07:02.772Z,101930.59
2023-02-13T17:09:33.173Z,101925.06
2023-02-13T17:12:03.180Z,101927.06
2023-02-13T17:14:30.469Z,101930.06
2023-02-13T17:16:58.139Z,101929.06
2023-02-13T17:19:25.465Z,101922.94
2023-02-13T17:21:56.324Z,101922.63
2023-02-13T17:24:23.601Z,101919.47
2023-02-13T17:26:54.173Z,101928.47
2023-02-13T17:29:21.478Z,101924.88
2023-02-13T17:31:56.455Z,101922.31
2023-02-13T17:34:26.317Z,101926.00
2023-02-13T17:36:53.577Z,101922.81
2023-02-13T17:39:20.952Z,101912.84
2023-02-13T17:41:52.678Z,101911.47
2023-02-13T17:44:21.554Z,101906.03
2023-02-13T17:46:48.722Z,101901.38
2023-02-13T17:49:16.050Z,101898.16
2023-02-13T17:51:45.870Z,101895.16
2023-02-13T17:54:13.311Z,101893.63
2023-02-13T17:56:40.577Z,101891.63
2023-02-13T17:59:10.169Z,101880.91
2023-02-13T18:01:37.504Z,101879.91
2023-02-13T18:04:04.994Z,101885.34
2023-02-13T18:06:32.305Z,101879.13
2023-02-13T18:08:59.549Z,101889.03
2023-02-13T18:11:26.873Z,101885.88
2023-02-13T18:13:54.196Z,101884.66
2023-02-13T18:16:22.373Z,101882.50
2023-02-13T18:18:49.687Z,101879.53
2023-02-13T18:21:17.106Z,101875.38
2023-02-13T18:23:44.323Z,101879.13
2023-02-13T18:26:12.913Z,101885.94
2023-02-13T18:28:43.143Z,101879.34
2023-02-13T18:31:14.436Z,101874.53
2023-02-13T18:33:44.482Z,101862.28
2023-02-13T18:36:12.501Z,101868.28
2023-02-13T18:38:39.709Z,101872.22
2023-02-13T18:41:09.479Z,101874.94
2023-02-13T18:43:37.326Z,101871.03
2023-02-13T18:46:07.856Z,101864.03
2023-02-13T18:48:35.227Z,101864.41
2023-02-13T18:51:02.530Z,101865.03
2023-02-13T18:53:30.645Z,101861.47
2023-02-13T18:56:08.403Z,101865.47
2023-02-13T18:58:38.631Z,101853.63
2023-02-13T19:01:10.808Z,101856.38
2023-02-13T19:03:39.073Z,101852.19
2023-02-13T19:06:11.992Z,101856.09
2023-02-13T19:08:39.616Z,101857.00
2023-02-13T19:11:09.699Z,101861.56
2023-02-13T19:13:37.198Z,101858.56
2023-02-13T19:16:13.385Z,101862.56
2023-02-13T19:18:43.963Z,101862.56
2023-02-13T19:21:11.627Z,101859.19
2023-02-13T19:23:42.893Z,101857.63
2023-02-13T19:26:15.721Z,101850.44
2023-02-13T19:28:44.818Z,101847.16
2023-02-13T19:31:20.525Z,101856.28
2023-02-13T19:33:48.565Z,101855.63
2023-02-13T19:36:21.873Z,101849.63
2023-02-13T19:38:57.302Z,101852.63
2023-02-13T19:41:26.619Z,101860.00
2023-02-13T19:43:54.024Z,101847.16
2023-02-13T19:46:23.917Z,101848.53
2023-02-13T19:48:51.724Z,101851.34
2023-02-13T19:51:22.056Z,101840.63
2023-02-13T19:53:54.613Z,101849.06
2023-02-13T19:56:21.923Z,101844.13
2023-02-13T19:58:52.073Z,101851.44
2023-02-13T20:01:22.385Z,101843.78
2023-02-13T20:03:53.440Z,101839.94
2023-02-13T20:06:24.261Z,101834.66
2023-02-13T20:08:52.613Z,101836.88
2023-02-13T20:11:22.118Z,101841.16
2023-02-13T20:13:54.652Z,101837.41
2023-02-13T20:16:22.151Z,101837.13
2023-02-13T20:18:50.222Z,101834.78
2023-02-13T20:21:18.623Z,101835.13
2023-02-13T20:23:51.359Z,101830.72
2023-02-13T20:26:19.200Z,101825.28
2023-02-13T20:28:47.249Z,101818.63
2023-02-13T20:31:18.466Z,101814.88
2023-02-13T20:33:50.881Z,101815.13
2023-02-13T20:36:23.898Z,101817.78
2023-02-13T20:38:57.318Z,101812.97
2023-02-13T20:41:27.649Z,101805.22
2023-02-13T20:43:59.777Z,101797.31
2023-02-13T20:46:30.517Z,101791.91
2023-02-13T20:48:57.817Z,101789.34
2023-02-13T20:51:25.204Z,101786.31
2023-02-13T20:53:52.484Z,101788.25
2023-02-13T20:56:22.856Z,101780.97
2023-02-13T20:58:55.340Z,101788.25
2023-02-13T21:01:28.867Z,101781.63
2023-02-13T21:03:59.423Z,101775.78
2023-02-13T21:06:31.836Z,101773.72
2023-02-13T21:08:59.687Z,101770.81
2023-02-13T21:11:27.601Z,101764.53
2023-02-13T21:13:58.623Z,101755.03
2023-02-13T21:16:29.036Z,101745.31
2023-02-13T21:19:03.355Z,101741.41
2023-02-13T21:21:31.874Z,101740.69
2023-02-13T21:24:02.795Z,101736.41
2023-02-13T21:26:32.677Z,101734.66
2023-02-13T21:29:00.291Z,101740.34
2023-02-13T21:31:30.836Z,101739.00
2023-02-13T21:34:04.253Z,101738.13
2023-02-13T21:36:32.856Z,101735.16
2023-02-13T21:39:00.110Z,101735.63
2023-02-13T21:41:27.855Z,101739.31
2023-02-13T21:43:55.518Z,101738.53
2023-02-13T21:46:28.902Z,101735.19
2023-02-13T21:48:59.025Z,101732.13
2023-02-13T21:51:27.791Z,101730.53
2023-02-13T21:53:56.102Z,101725.59
2023-02-13T21:56:29.124Z,101727.00
2023-02-13T21:58:57.323Z,101718.25
2023-02-13T22:01:33.475Z,101722.78
2023-02-13T22:04:03.840Z,101718.31
2023-02-13T22:06:32.630Z,101717.97
2023-02-13T22:09:07.773Z,101721.13
2023-02-13T22:11:35.887Z,101716.28
2023-02-13T22:14:05.801Z,101721.50
2023-02-13T22:16:35.702Z,101717.00
2023-02-13T22:19:04.894Z,101713.38
2023-02-13T22:21:33.899Z,101720.91
2023-02-13T22:24:01.658Z,101716.16
2023-02-13T22:26:34.552Z,101718.25
2023-02-13T22:29:07.693Z,101718.03
2023-02-13T22:31:35.226Z,101724.97
2023-02-13T22:34:05.237Z,101720.16
2023-02-13T22:36:35.022Z,101712.03
2023-02-13T22:39:02.351Z,101722.88
2023-02-13T22:41:29.751Z,101723.13
2023-02-13T22:43:57.773Z,101730.03
2023-02-13T22:46:28.068Z,101728.97
2023-02-13T22:48:55.663Z,101731.78
2023-02-13T22:51:32.370Z,101723.69
2023-02-13T22:54:01.025Z,101724.75
2023-02-13T22:56:30.339Z,101725.00
2023-02-13T22:58:58.581Z,101724.28
2023-02-13T23:01:27.202Z,101728.38
2023-02-13T23:03:55.600Z,101722.50
2023-02-13T23:06:24.619Z,101722.03
2023-02-13T23:08:52.212Z,101725.59
2023-02-13T23:11:21.691Z,101718.72
2023-02-13T23:13:48.953Z,101714.44
2023-02-13T23:16:16.520Z,101726.72
2023-02-13T23:18:44.437Z,101715.97
2023-02-13T23:21:11.646Z,101715.81
2023-02-13T23:23:38.857Z,101711.06
2023-02-13T23:26:07.000Z,101711.22
2023-02-13T23:28:35.797Z,101703.84
2023-02-13T23:31:03.718Z,101704.81
2023-02-13T23:33:31.317Z,101696.25
2023-02-13T23:35:58.613Z,101698.59
2023-02-13T23:38:25.982Z,101705.06
2023-02-13T23:40:53.252Z,101698.50
2023-02-13T23:43:20.515Z,101699.22
2023-02-13T23:45:47.755Z,101710.41
2023-02-13T23:48:14.973Z,101711.25
2023-02-13T23:50:42.285Z,101719.03
2023-02-13T23:53:09.898Z,101721.38
2023-02-13T23:55:37.420Z,101722.72
2023-02-13T23:58:04.640Z,101733.59
